sensor_id;sensor_type;location;lat;lon;timestamp;pressure;altitude;pressure_sealevel;temperature;humidity
14800;BME280;7491;57.750;11.970;2023-11-18T00:01:20;78100.78;;;-142.11;100.00
14800;BME280;7491;57.750;11.970;2023-11-18T00:03:47;78098.75;;;-142.11;100.00
14800;BME280;7491;57.750;11.970;2023-11-18T00:06:14;78100.78;;;-142.11;100.00
14800;BME280;7491;57.750;11.970;2023-11-18T00:08:40;78121.19;;;-142.11;100.00
14800;BME280;7491;57.750;11.970;2023-11-18T00:11:07;78115.06;;;-142.11;100.00
14800;BME280;7491;57.750;11.970;2023-11-18T00:13:37;78108.94;;;-142.11;100.00
14800;BME280;7491;57.750;11.970;2023-11-18T00:16:04;78108.94;;;-142.11;100.00
14800;BME280;7491;57.750;11.970;2023-11-18T00:18:31;78082.44;;;-142.11;100.00
14800;BME280;7491;57.750;11.970;2023-11-18T00:20:58;78098.75;;;-142.11;100.00
14800;BME280;7491;57.750;11.970;2023-11-18T00:23:25;78080.41;;;-142.11;100.00
14800;BME280;7491;57.750;11.970;2023-11-18T00:25:54;78121.19;;;-142.11;100.00
14800;BME280;7491;57.750;11.970;2023-11-18T00:28:21;78104.88;;;-142.11;100.00
14800;BME280;7491;57.750;11.970;2023-11-18T00:30:49;78135.47;;;-142.11;100.00
14800;BME280;7491;57.750;11.970;2023-11-18T00:33:16;78139.53;;;-142.11;100.00
14800;BME280;7491;57.750;11.970;2023-11-18T00:35:43;78127.31;;;-142.11;100.00
14800;BME280;7491;57.750;11.970;2023-11-18T00:38:11;78149.75;;;-142.11;100.00
14800;BME280;7491;57.750;11.970;2023-11-18T00:40:37;78147.69;;;-142.11;100.00
14800;BME280;7491;57.750;11.970;2023-11-18T00:43:04;78131.38;;;-142.11;100.00
14800;BME280;7491;57.750;11.970;2023-11-18T00:45:31;78159.94;;;-142.11;100.00
14800;BME280;7491;57.750;11.970;2023-11-18T00:47:59;78145.66;;;-142.11;100.00
14800;BME280;7491;57.750;11.970;2023-11-18T00:50:26;78157.91;;;-142.11;100.00
14800;BME280;7491;57.750;11.970;2023-11-18T00:52:53;78157.91;;;-142.11;100.00
14800;BME280;7491;57.750;11.970;2023-11-18T00:55:20;78143.63;;;-142.11;100.00
14800;BME280;7491;57.750;11.970;2023-11-18T00:57:47;78151.78;;;-142.11;100.00
14800;BME280;7491;57.750;11.970;2023-11-18T01:00:16;78153.81;;;-142.11;100.00
14800;BME280;7491;57.750;11.970;2023-11-18T01:02:48;78166.06;;;-142.11;100.00
14800;BME280;7491;57.750;11.970;2023-11-18T01:05:16;78166.06;;;-142.11;100.00
14800;BME280;7491;57.750;11.970;2023-11-18T01:07:42;78170.13;;;-142.11;100.00
14800;BME280;7491;57.750;11.970;2023-11-18T01:10:10;78159.94;;;-142.11;100.00
14800;BME280;7491;57.750;11.970;2023-11-18T01:12:37;78159.94;;;-142.11;100.00
14800;BME280;7491;57.750;11.970;2023-11-18T01:15:04;78168.09;;;-142.11;100.00
14800;BME280;7491;57.750;11.970;2023-11-18T01:17:32;78178.31;;;-142.11;100.00
14800;BME280;7491;57.750;11.970;2023-11-18T01:19:59;78174.22;;;-142.11;100.00
14800;BME280;7491;57.750;11.970;2023-11-18T01:22:27;78186.47;;;-142.11;100.00
14800;BME280;7491;57.750;11.970;2023-11-18T01:24:54;78192.56;;;-142.11;100.00
14800;BME280;7491;57.750;11.970;2023-11-18T01:27:21;78202.78;;;-142.11;100.00
14800;BME280;7491;57.750;11.970;2023-11-18T01:29:48;78190.53;;;-142.11;100.00
14800;BME280;7491;57.750;11.970;2023-11-18T01:32:15;78217.06;;;-142.11;100.00
14800;BME280;7491;57.750;11.970;2023-11-18T01:34:42;78206.84;;;-142.11;100.00
14800;BME280;7491;57.750;11.970;2023-11-18T01:37:10;78208.91;;;-142.11;100.00
14800;BME280;7491;57.750;11.970;2023-11-18T01:39:38;78225.22;;;-142.11;100.00
14800;BME280;7491;57.750;11.970;2023-11-18T01:42:05;78212.97;;;-142.11;100.00
14800;BME280;7491;57.750;11.970;2023-11-18T01:44:31;78210.94;;;-142.11;100.00
14800;BME280;7491;57.750;11.970;2023-11-18T01:47:01;78215.00;;;-142.11;100.00
14800;BME280;7491;57.750;11.970;2023-11-18T01:49:32;78202.78;;;-142.11;100.00
14800;BME280;7491;57.750;11.970;2023-11-18T01:51:59;78196.66;;;-142.11;100.00
14800;BME280;7491;57.750;11.970;2023-11-18T01:54:26;78210.94;;;-142.11;100.00
14800;BME280;7491;57.750;11.970;2023-11-18T01:56:55;78204.81;;;-142.11;100.00
14800;BME280;7491;57.750;11.970;2023-11-18T01:59:22;78217.06;;;-142.11;100.00
14800;BME280;7491;57.750;11.970;2023-11-18T02:01:52;78212.97;;;-142.11;100.00
14800;BME280;7491;57.750;11.970;2023-11-18T02:04:23;78194.63;;;-142.11;100.00
14800;BME280;7491;57.750;11.970;2023-11-18T02:06:50;78219.09;;;-142.11;100.00
14800;BME280;7491;57.750;11.970;2023-11-18T02:09:21;78227.25;;;-142.11;100.00
14800;BME280;7491;57.750;11.970;2023-11-18T02:11:59;78227.25;;;-142.11;100.00
14800;BME280;7491;57.750;11.970;2023-11-18T02:14:28;78212.97;;;-142.11;100.00
14800;BME280;7491;57.750;11.970;2023-11-18T02:16:59;78206.84;;;-142.11;100.00
14800;BME280;7491;57.750;11.970;2023-11-18T02:19:26;78221.13;;;-142.11;100.00
14800;BME280;7491;57.750;11.970;2023-11-18T02:21:55;78219.09;;;-142.11;100.00
14800;BME280;7491;57.750;11.970;2023-11-18T02:24:27;78210.94;;;-142.11;100.00
14800;BME280;7491;57.750;11.970;2023-11-18T02:26:58;78204.81;;;-142.11;100.00
14800;BME280;7491;57.750;11.970;2023-11-18T02:29:27;78196.66;;;-142.11;100.00
14800;BME280;7491;57.750;11.970;2023-11-18T02:31:59;78176.25;;;-142.11;100.00
14800;BME280;7491;57.750;11.970;2023-11-18T02:34:31;78202.78;;;-142.11;100.00
14800;BME280;7491;57.750;11.970;2023-11-18T02:37:02;78206.84;;;-142.11;100.00
14800;BME280;7491;57.750;11.970;2023-11-18T02:39:35;78204.81;;;-142.11;100.00
14800;BME280;7491;57.750;11.970;2023-11-18T02:42:08;78223.16;;;-142.11;100.00
14800;BME280;7491;57.750;11.970;2023-11-18T02:44:38;78196.66;;;-142.11;100.00
14800;BME280;7491;57.750;11.970;2023-11-18T02:47:05;78196.66;;;-142.11;100.00
14800;BME280;7491;57.750;11.970;2023-11-18T02:49:32;78204.81;;;-142.11;100.00
14800;BME280;7491;57.750;11.970;2023-11-18T02:51:58;78186.47;;;-142.11;100.00
14800;BME280;7491;57.750;11.970;2023-11-18T02:54:25;78176.25;;;-142.11;100.00
14800;BME280;7491;57.750;11.970;2023-11-18T02:56:52;78172.19;;;-142.11;100.00
14800;BME280;7491;57.750;11.970;2023-11-18T02:59:20;78174.22;;;-142.11;100.00
14800;BME280;7491;57.750;11.970;2023-11-18T03:01:47;78172.19;;;-142.11;100.00
14800;BME280;7491;57.750;11.970;2023-11-18T03:04:14;78202.78;;;-142.11;100.00
14800;BME280;7491;57.750;11.970;2023-11-18T03:06:41;78198.69;;;-142.11;100.00
14800;BME280;7491;57.750;11.970;2023-11-18T03:09:08;78180.34;;;-142.11;100.00
14800;BME280;7491;57.750;11.970;2023-11-18T03:11:36;78188.50;;;-142.11;100.00
14800;BME280;7491;57.750;11.970;2023-11-18T03:14:03;78182.38;;;-142.11;100.00
14800;BME280;7491;57.750;11.970;2023-11-18T03:16:36;78182.38;;;-142.11;100.00
14800;BME280;7491;57.750;11.970;2023-11-18T03:19:03;78186.47;;;-142.11;100.00
14800;BME280;7491;57.750;11.970;2023-11-18T03:21:30;78200.72;;;-142.11;100.00
14800;BME280;7491;57.750;11.970;2023-11-18T03:23:56;78200.72;;;-142.11;100.00
14800;BME280;7491;57.750;11.970;2023-11-18T03:26:23;78192.56;;;-142.11;100.00
14800;BME280;7491;57.750;11.970;2023-11-18T03:28:51;78206.84;;;-142.11;100.00
14800;BME280;7491;57.750;11.970;2023-11-18T03:31:18;78188.50;;;-142.11;100.00
14800;BME280;7491;57.750;11.970;2023-11-18T03:33:46;78198.69;;;-142.11;100.00
14800;BME280;7491;57.750;11.970;2023-11-18T03:36:13;78180.34;;;-142.11;100.00
14800;BME280;7491;57.750;11.970;2023-11-18T03:38:43;78184.41;;;-142.11;100.00
14800;BME280;7491;57.750;11.970;2023-11-18T03:41:10;78198.69;;;-142.11;100.00
14800;BME280;7491;57.750;11.970;2023-11-18T03:43:38;78202.78;;;-142.11;100.00
14800;BME280;7491;57.750;11.970;2023-11-18T03:46:05;78190.53;;;-142.11;100.00
14800;BME280;7491;57.750;11.970;2023-11-18T03:48:32;78196.66;;;-142.11;100.00
14800;BME280;7491;57.750;11.970;2023-11-18T03:51:01;78172.19;;;-142.11;100.00
14800;BME280;7491;57.750;11.970;2023-11-18T03:53:28;78180.34;;;-142.11;100.00
14800;BME280;7491;57.750;11.970;2023-11-18T03:55:56;78192.56;;;-142.11;100.00
14800;BME280;7491;57.750;11.970;2023-11-18T03:58:22;78196.66;;;-142.11;100.00
14800;BME280;7491;57.750;11.970;2023-11-18T04:00:49;78194.63;;;-142.11;100.00
14800;BME280;7491;57.750;11.970;2023-11-18T04:03:16;78212.97;;;-142.11;100.00
14800;BME280;7491;57.750;11.970;2023-11-18T04:05:43;78221.13;;;-142.11;100.00
14800;BME280;7491;57.750;11.970;2023-11-18T04:08:11;78227.25;;;-142.11;100.00
14800;BME280;7491;57.750;11.970;2023-11-18T04:10:38;78204.81;;;-142.11;100.00
14800;BME280;7491;57.750;11.970;2023-11-18T04:13:05;78200.72;;;-142.11;100.00
14800;BME280;7491;57.750;11.970;2023-11-18T04:15:32;78190.53;;;-142.11;100.00
14800;BME280;7491;57.750;11.970;2023-11-18T04:18:00;78186.47;;;-142.11;100.00
14800;BME280;7491;57.750;11.970;2023-11-18T04:20:27;78204.81;;;-142.11;100.00
14800;BME280;7491;57.750;11.970;2023-11-18T04:22:54;78202.78;;;-142.11;100.00
14800;BME280;7491;57.750;11.970;2023-11-18T04:25:22;78204.81;;;-142.11;100.00
14800;BME280;7491;57.750;11.970;2023-11-18T04:27:48;78186.47;;;-142.11;100.00
14800;BME280;7491;57.750;11.970;2023-11-18T04:30:15;78198.69;;;-142.11;100.00
14800;BME280;7491;57.750;11.970;2023-11-18T04:32:42;78208.91;;;-142.11;100.00
14800;BME280;7491;57.750;11.970;2023-11-18T04:35:09;78186.47;;;-142.11;100.00
14800;BME280;7491;57.750;11.970;2023-11-18T04:37:37;78186.47;;;-142.11;100.00
14800;BME280;7491;57.750;11.970;2023-11-18T04:40:08;78182.38;;;-142.11;100.00
14800;BME280;7491;57.750;11.970;2023-11-18T04:42:39;78172.19;;;-142.11;100.00
14800;BME280;7491;57.750;11.970;2023-11-18T04:45:06;78168.09;;;-142.11;100.00
14800;BME280;7491;57.750;11.970;2023-11-18T04:47:35;78202.78;;;-142.11;100.00
14800;BME280;7491;57.750;11.970;2023-11-18T04:50:02;78206.84;;;-142.11;100.00
14800;BME280;7491;57.750;11.970;2023-11-18T04:52:29;78194.63;;;-142.11;100.00
14800;BME280;7491;57.750;11.970;2023-11-18T04:54:58;78204.81;;;-142.11;100.00
14800;BME280;7491;57.750;11.970;2023-11-18T04:57:25;78200.72;;;-142.11;100.00
14800;BME280;7491;57.750;11.970;2023-11-18T04:59:54;78180.34;;;-142.11;100.00
14800;BME280;7491;57.750;11.970;2023-11-18T05:02:21;78184.41;;;-142.11;100.00
14800;BME280;7491;57.750;11.970;2023-11-18T05:04:48;78192.56;;;-142.11;100.00
14800;BME280;7491;57.750;11.970;2023-11-18T05:07:15;78166.06;;;-142.11;100.00
14800;BME280;7491;57.750;11.970;2023-11-18T05:09:42;78170.13;;;-142.11;100.00
14800;BME280;7491;57.750;11.970;2023-11-18T05:12:09;78172.19;;;-142.11;100.00
14800;BME280;7491;57.750;11.970;2023-11-18T05:14:36;78164.03;;;-142.11;100.00
14800;BME280;7491;57.750;11.970;2023-11-18T05:17:05;78178.31;;;-142.11;100.00
14800;BME280;7491;57.750;11.970;2023-11-18T05:19:31;78174.22;;;-142.11;100.00
14800;BME280;7491;57.750;11.970;2023-11-18T05:21:58;78174.22;;;-142.11;100.00
14800;BME280;7491;57.750;11.970;2023-11-18T05:24:25;78174.22;;;-142.11;100.00
14800;BME280;7491;57.750;11.970;2023-11-18T05:26:52;78186.47;;;-142.11;100.00
14800;BME280;7491;57.750;11.970;2023-11-18T05:29:19;78182.38;;;-142.11;100.00
14800;BME280;7491;57.750;11.970;2023-11-18T05:31:46;78192.56;;;-142.11;100.00
14800;BME280;7491;57.750;11.970;2023-11-18T05:34:14;78182.38;;;-142.11;100.00
14800;BME280;7491;57.750;11.970;2023-11-18T05:36:41;78157.91;;;-142.11;100.00
14800;BME280;7491;57.750;11.970;2023-11-18T05:39:09;78170.13;;;-142.11;100.00
14800;BME280;7491;57.750;11.970;2023-11-18T05:41:36;78200.72;;;-142.11;100.00
14800;BME280;7491;57.750;11.970;2023-11-18T05:44:05;78200.72;;;-142.11;100.00
14800;BME280;7491;57.750;11.970;2023-11-18T05:46:34;78182.38;;;-142.11;100.00
14800;BME280;7491;57.750;11.970;2023-11-18T05:49:02;78182.38;;;-142.11;100.00
14800;BME280;7491;57.750;11.970;2023-11-18T05:51:34;78172.19;;;-142.11;100.00
14800;BME280;7491;57.750;11.970;2023-11-18T05:54:01;78202.78;;;-142.11;100.00
14800;BME280;7491;57.750;11.970;2023-11-18T05:56:27;78196.66;;;-142.11;100.00
14800;BME280;7491;57.750;11.970;2023-11-18T05:58:54;78208.91;;;-142.11;100.00
14800;BME280;7491;57.750;11.970;2023-11-18T06:01:21;78204.81;;;-142.11;100.00
14800;BME280;7491;57.750;11.970;2023-11-18T06:03:48;78190.53;;;-142.11;100.00
14800;BME280;7491;57.750;11.970;2023-11-18T06:06:16;78196.66;;;-142.11;100.00
14800;BME280;7491;57.750;11.970;2023-11-18T06:08:44;78204.81;;;-142.11;100.00
14800;BME280;7491;57.750;11.970;2023-11-18T06:11:13;78210.94;;;-142.11;100.00
14800;BME280;7491;57.750;11.970;2023-11-18T06:13:41;78208.91;;;-142.11;100.00
14800;BME280;7491;57.750;11.970;2023-11-18T06:16:10;78215.00;;;-142.11;100.00
14800;BME280;7491;57.750;11.970;2023-11-18T06:18:40;78225.22;;;-142.11;100.00
14800;BME280;7491;57.750;11.970;2023-11-18T06:21:07;78225.22;;;-142.11;100.00
14800;BME280;7491;57.750;11.970;2023-11-18T06:23:34;78225.22;;;-142.11;100.00
14800;BME280;7491;57.750;11.970;2023-11-18T06:26:03;78223.16;;;-142.11;100.00
14800;BME280;7491;57.750;11.970;2023-11-18T06:28:30;78206.84;;;-142.11;100.00
14800;BME280;7491;57.750;11.970;2023-11-18T06:30:57;78202.78;;;-142.11;100.00
14800;BME280;7491;57.750;11.970;2023-11-18T06:33:24;78221.13;;;-142.11;100.00
14800;BME280;7491;57.750;11.970;2023-11-18T06:35:53;78223.16;;;-142.11;100.00
14800;BME280;7491;57.750;11.970;2023-11-18T06:38:21;78210.94;;;-142.11;100.00
14800;BME280;7491;57.750;11.970;2023-11-18T06:40:48;78210.94;;;-142.11;100.00
14800;BME280;7491;57.750;11.970;2023-11-18T06:43:19;78210.94;;;-142.11;100.00
14800;BME280;7491;57.750;11.970;2023-11-18T06:45:46;78198.69;;;-142.11;100.00
14800;BME280;7491;57.750;11.970;2023-11-18T06:48:14;78182.38;;;-142.11;100.00
14800;BME280;7491;57.750;11.970;2023-11-18T06:50:45;78178.31;;;-142.11;100.00
14800;BME280;7491;57.750;11.970;2023-11-18T06:53:12;78194.63;;;-142.11;100.00
14800;BME280;7491;57.750;11.970;2023-11-18T06:55:41;78196.66;;;-142.11;100.00
14800;BME280;7491;57.750;11.970;2023-11-18T06:58:07;78182.38;;;-142.11;100.00
14800;BME280;7491;57.750;11.970;2023-11-18T07:00:37;78206.84;;;-142.11;100.00
14800;BME280;7491;57.750;11.970;2023-11-18T07:03:04;78200.72;;;-142.11;100.00
14800;BME280;7491;57.750;11.970;2023-11-18T07:05:31;78180.34;;;-142.11;100.00
14800;BME280;7491;57.750;11.970;2023-11-18T07:07:57;78174.22;;;-142.11;100.00
14800;BME280;7491;57.750;11.970;2023-11-18T07:10:24;78170.13;;;-142.11;100.00
14800;BME280;7491;57.750;11.970;2023-11-18T07:12:53;78161.97;;;-142.11;100.00
14800;BME280;7491;57.750;11.970;2023-11-18T07:15:20;78164.03;;;-142.11;100.00
14800;BME280;7491;57.750;11.970;2023-11-18T07:17:48;78164.03;;;-142.11;100.00
14800;BME280;7491;57.750;11.970;2023-11-18T07:20:15;78166.06;;;-142.11;100.00
14800;BME280;7491;57.750;11.970;2023-11-18T07:22:42;78180.34;;;-142.11;100.00
14800;BME280;7491;57.750;11.970;2023-11-18T07:25:09;78178.31;;;-142.11;100.00
14800;BME280;7491;57.750;11.970;2023-11-18T07:27:35;78190.53;;;-142.11;100.00
14800;BME280;7491;57.750;11.970;2023-11-18T07:30:03;78178.31;;;-142.11;100.00
14800;BME280;7491;57.750;11.970;2023-11-18T07:32:35;78176.25;;;-142.11;100.00
14800;BME280;7491;57.750;11.970;2023-11-18T07:35:04;78192.56;;;-142.11;100.00
14800;BME280;7491;57.750;11.970;2023-11-18T07:37:34;78212.97;;;-142.11;100.00
14800;BME280;7491;57.750;11.970;2023-11-18T07:40:03;78202.78;;;-142.11;100.00
14800;BME280;7491;57.750;11.970;2023-11-18T07:42:31;78196.66;;;-142.11;100.00
14800;BME280;7491;57.750;11.970;2023-11-18T07:45:00;78200.72;;;-142.11;100.00
14800;BME280;7491;57.750;11.970;2023-11-18T07:47:29;78188.50;;;-142.11;100.00
14800;BME280;7491;57.750;11.970;2023-11-18T07:49:57;78182.38;;;-142.11;100.00
14800;BME280;7491;57.750;11.970;2023-11-18T07:52:25;78200.72;;;-142.11;100.00
14800;BME280;7491;57.750;11.970;2023-11-18T07:54:53;78172.19;;;-142.11;100.00
14800;BME280;7491;57.750;11.970;2023-11-18T07:57:20;78147.69;;;-142.11;100.00
14800;BME280;7491;57.750;11.970;2023-11-18T07:59:49;78131.38;;;-142.11;100.00
14800;BME280;7491;57.750;11.970;2023-11-18T08:02:15;78133.44;;;-142.11;100.00
14800;BME280;7491;57.750;11.970;2023-11-18T08:04:44;78151.78;;;-142.11;100.00
14800;BME280;7491;57.750;11.970;2023-11-18T08:07:10;78155.84;;;-142.11;100.00
14800;BME280;7491;57.750;11.970;2023-11-18T08:09:38;78131.38;;;-142.11;100.00
14800;BME280;7491;57.750;11.970;2023-11-18T08:12:06;78111.00;;;-142.11;100.00
14800;BME280;7491;57.750;11.970;2023-11-18T08:14:34;78137.50;;;-142.11;100.00
14800;BME280;7491;57.750;11.970;2023-11-18T08:17:01;78135.47;;;-142.11;100.00
14800;BME280;7491;57.750;11.970;2023-11-18T08:19:29;78113.03;;;-142.11;100.00
14800;BME280;7491;57.750;11.970;2023-11-18T08:21:56;78100.78;;;-142.11;100.00
14800;BME280;7491;57.750;11.970;2023-11-18T08:24:25;78123.22;;;-142.11;100.00
14800;BME280;7491;57.750;11.970;2023-11-18T08:26:53;78131.38;;;-142.11;100.00
14800;BME280;7491;57.750;11.970;2023-11-18T08:29:20;78121.19;;;-142.11;100.00
14800;BME280;7491;57.750;11.970;2023-11-18T08:31:47;78090.59;;;-142.11;100.00
14800;BME280;7491;57.750;11.970;2023-11-18T08:34:14;78094.66;;;-142.11;100.00
14800;BME280;7491;57.750;11.970;2023-11-18T08:36:42;78096.72;;;-142.11;100.00
14800;BME280;7491;57.750;11.970;2023-11-18T08:39:09;78113.03;;;-142.11;100.00
14800;BME280;7491;57.750;11.970;2023-11-18T08:41:36;78102.84;;;-142.11;100.00
14800;BME280;7491;57.750;11.970;2023-11-18T08:44:05;78104.88;;;-142.11;100.00
14800;BME280;7491;57.750;11.970;2023-11-18T08:46:34;78117.09;;;-142.11;100.00
14800;BME280;7491;57.750;11.970;2023-11-18T08:49:02;78127.31;;;-142.11;100.00
14800;BME280;7491;57.750;11.970;2023-11-18T08:51:36;78137.50;;;-142.11;100.00
14800;BME280;7491;57.750;11.970;2023-11-18T08:54:04;78127.31;;;-142.11;100.00
14800;BME280;7491;57.750;11.970;2023-11-18T08:56:47;78113.03;;;-142.11;100.00
14800;BME280;7491;57.750;11.970;2023-11-18T08:59:18;78084.47;;;-142.11;100.00
14800;BME280;7491;57.750;11.970;2023-11-18T09:01:50;78076.31;;;-142.11;100.00
14800;BME280;7491;57.750;11.970;2023-11-18T09:04:21;78064.06;;;-142.11;100.00
14800;BME280;7491;57.750;11.970;2023-11-18T09:06:49;78074.28;;;-142.11;100.00
14800;BME280;7491;57.750;11.970;2023-11-18T09:09:17;78082.44;;;-142.11;100.00
14800;BME280;7491;57.750;11.970;2023-11-18T09:11:52;78037.56;;;-142.11;100.00
14800;BME280;7491;57.750;11.970;2023-11-18T09:14:20;78066.13;;;-142.11;100.00
14800;BME280;7491;57.750;11.970;2023-11-18T09:16:47;78066.13;;;-142.11;100.00
14800;BME280;7491;57.750;11.970;2023-11-18T09:19:15;78082.44;;;-142.11;100.00
14800;BME280;7491;57.750;11.970;2023-11-18T09:21:42;78082.44;;;-142.11;100.00
14800;BME280;7491;57.750;11.970;2023-11-18T09:24:10;78076.31;;;-142.11;100.00
14800;BME280;7491;57.750;11.970;2023-11-18T09:26:38;78045.72;;;-142.11;100.00
14800;BME280;7491;57.750;11.970;2023-11-18T09:29:05;78029.41;;;-142.11;100.00
14800;BME280;7491;57.750;11.970;2023-11-18T09:31:35;78019.22;;;-142.11;100.00
14800;BME280;7491;57.750;11.970;2023-11-18T09:34:02;78019.22;;;-142.11;100.00
14800;BME280;7491;57.750;11.970;2023-11-18T09:36:32;78021.25;;;-142.11;100.00
14800;BME280;7491;57.750;11.970;2023-11-18T09:38:59;78023.28;;;-142.11;100.00
14800;BME280;7491;57.750;11.970;2023-11-18T09:41:28;78017.16;;;-142.11;100.00
14800;BME280;7491;57.750;11.970;2023-11-18T09:43:55;78039.59;;;-142.11;100.00
14800;BME280;7491;57.750;11.970;2023-11-18T09:46:28;78039.59;;;-142.11;100.00
14800;BME280;7491;57.750;11.970;2023-11-18T09:49:06;78027.38;;;-142.11;100.00
14800;BME280;7491;57.750;11.970;2023-11-18T09:51:42;78013.09;;;-142.11;100.00
14800;BME280;7491;57.750;11.970;2023-11-18T09:54:18;77978.41;;;-142.11;100.00
14800;BME280;7491;57.750;11.970;2023-11-18T09:56:56;77992.69;;;-142.11;100.00
14800;BME280;7491;57.750;11.970;2023-11-18T09:59:41;77976.38;;;-142.11;100.00
14800;BME280;7491;57.750;11.970;2023-11-18T10:02:10;77949.84;;;-142.11;100.00
14800;BME280;7491;57.750;11.970;2023-11-18T10:04:38;77939.66;;;-142.11;100.00
14800;BME280;7491;57.750;11.970;2023-11-18T10:07:06;77966.19;;;-142.11;100.00
14800;BME280;7491;57.750;11.970;2023-11-18T10:09:35;77960.06;;;-142.11;100.00
14800;BME280;7491;57.750;11.970;2023-11-18T10:12:04;77968.22;;;-142.11;100.00
14800;BME280;7491;57.750;11.970;2023-11-18T10:14:32;77962.09;;;-142.11;100.00
14800;BME280;7491;57.750;11.970;2023-11-18T10:16:59;77960.06;;;-142.11;100.00
14800;BME280;7491;57.750;11.970;2023-11-18T10:19:50;77911.09;;;-142.11;100.00
14800;BME280;7491;57.750;11.970;2023-11-18T10:22:21;77941.69;;;-142.11;100.00
14800;BME280;7491;57.750;11.970;2023-11-18T10:24:49;77955.97;;;-142.11;100.00
14800;BME280;7491;57.750;11.970;2023-11-18T10:27:20;77960.06;;;-142.11;100.00
14800;BME280;7491;57.750;11.970;2023-11-18T10:29:48;77943.75;;;-142.11;100.00
14800;BME280;7491;57.750;11.970;2023-11-18T10:32:17;77917.22;;;-142.11;100.00
14800;BME280;7491;57.750;11.970;2023-11-18T10:34:47;77925.38;;;-142.11;100.00
14800;BME280;7491;57.750;11.970;2023-11-18T10:37:16;77917.22;;;-142.11;100.00
14800;BME280;7491;57.750;11.970;2023-11-18T10:39:46;77898.88;;;-142.11;100.00
14800;BME280;7491;57.750;11.970;2023-11-18T10:42:13;77890.72;;;-142.11;100.00
14800;BME280;7491;57.750;11.970;2023-11-18T10:44:54;77878.47;;;-142.11;100.00
14800;BME280;7491;57.750;11.970;2023-11-18T10:47:23;77851.97;;;-142.11;100.00
14800;BME280;7491;57.750;11.970;2023-11-18T10:49:51;77847.88;;;-142.11;100.00
14800;BME280;7491;57.750;11.970;2023-11-18T10:52:19;77847.88;;;-142.11;100.00
14800;BME280;7491;57.750;11.970;2023-11-18T10:54:53;77835.66;;;-142.11;100.00
14800;BME280;7491;57.750;11.970;2023-11-18T10:57:21;77837.69;;;-142.11;100.00
14800;BME280;7491;57.750;11.970;2023-11-18T11:00:01;77837.69;;;-142.11;100.00
14800;BME280;7491;57.750;11.970;2023-11-18T11:02:32;77837.69;;;-142.11;100.00
14800;BME280;7491;57.750;11.970;2023-11-18T11:05:05;77813.22;;;-142.11;100.00
14800;BME280;7491;57.750;11.970;2023-11-18T11:07:34;77786.69;;;-142.11;100.00
14800;BME280;7491;57.750;11.970;2023-11-18T11:10:03;77811.16;;;-142.11;100.00
14800;BME280;7491;57.750;11.970;2023-11-18T11:12:33;77807.09;;;-142.11;100.00
14800;BME280;7491;57.750;11.970;2023-11-18T11:15:08;77807.09;;;-142.11;100.00
14800;BME280;7491;57.750;11.970;2023-11-18T11:17:48;77817.28;;;-142.11;100.00
14800;BME280;7491;57.750;11.970;2023-11-18T11:20:21;77815.25;;;-142.11;100.00
14800;BME280;7491;57.750;11.970;2023-11-18T11:23:02;77800.97;;;-142.11;100.00
14800;BME280;7491;57.750;11.970;2023-11-18T11:25:43;77780.59;;;-142.11;100.00
14800;BME280;7491;57.750;11.970;2023-11-18T11:28:20;77762.22;;;-142.11;100.00
14800;BME280;7491;57.750;11.970;2023-11-18T11:30:50;77778.53;;;-142.11;100.00
14800;BME280;7491;57.750;11.970;2023-11-18T11:33:25;77741.84;;;-142.11;100.00
14800;BME280;7491;57.750;11.970;2023-11-18T11:35:59;77750.00;;;-142.11;100.00
14800;BME280;7491;57.750;11.970;2023-11-18T11:38:32;77764.25;;;-142.11;100.00
14800;BME280;7491;57.750;11.970;2023-11-18T11:41:00;77750.00;;;-142.11;100.00
14800;BME280;7491;57.750;11.970;2023-11-18T11:43:32;77723.47;;;-142.11;100.00
14800;BME280;7491;57.750;11.970;2023-11-18T11:46:01;77752.03;;;-142.11;100.00
14800;BME280;7491;57.750;11.970;2023-11-18T11:48:35;77721.44;;;-142.11;100.00
14800;BME280;7491;57.750;11.970;2023-11-18T11:51:20;77727.56;;;-142.11;100.00
14800;BME280;7491;57.750;11.970;2023-11-18T11:53:59;77741.84;;;-142.11;100.00
14800;BME280;7491;57.750;11.970;2023-11-18T11:56:39;77741.84;;;-142.11;100.00
14800;BME280;7491;57.750;11.970;2023-11-18T11:59:08;77725.50;;;-142.11;100.00
14800;BME280;7491;57.750;11.970;2023-11-18T12:01:37;77707.16;;;-142.11;100.00
14800;BME280;7491;57.750;11.970;2023-11-18T12:04:04;77692.88;;;-142.11;100.00
14800;BME280;7491;57.750;11.970;2023-11-18T12:06:41;77699.00;;;-142.11;100.00
14800;BME280;7491;57.750;11.970;2023-11-18T12:09:11;77676.56;;;-142.11;100.00
14800;BME280;7491;57.750;11.970;2023-11-18T12:11:45;77692.88;;;-142.11;100.00
14800;BME280;7491;57.750;11.970;2023-11-18T12:14:14;77711.25;;;-142.11;100.00
14800;BME280;7491;57.750;11.970;2023-11-18T12:17:02;77701.03;;;-142.11;100.00
14800;BME280;7491;57.750;11.970;2023-11-18T12:19:34;77701.03;;;-142.11;100.00
14800;BME280;7491;57.750;11.970;2023-11-18T12:22:12;77686.75;;;-142.11;100.00
14800;BME280;7491;57.750;11.970;2023-11-18T12:28:07;77652.09;;;-142.11;100.00
14800;BME280;7491;57.750;11.970;2023-11-18T12:30:42;77637.81;;;-142.11;100.00
14800;BME280;7491;57.750;11.970;2023-11-18T12:33:23;77623.53;;;-142.11;100.00
14800;BME280;7491;57.750;11.970;2023-11-18T12:39:32;77629.66;;;-142.11;100.00
14800;BME280;7491;57.750;11.970;2023-11-18T12:42:07;77631.69;;;-142.11;100.00
14800;BME280;7491;57.750;11.970;2023-11-18T12:44:46;77621.50;;;-142.11;100.00
14800;BME280;7491;57.750;11.970;2023-11-18T12:47:20;77633.75;;;-142.11;100.00